N31GJ TBPB-KOPF
Flight info
| Callsign | N31GJ |
|---|---|
| Flight time | N/A |
| Altitude | 38000 |
| Route | GEECE L466 MEEGL Y421 HAGIT Y352 ZQA OLAHS3 |
| Aircraft | LJ35/M-SGHRWXY/SB1 |
Departure
| Time | N/A |
|---|---|
| Airport | Grantley Adams International Airport (TBPB) |
Arrival
| Time | 2026-04-23 20:02 |
|---|---|
| Airport | Miami-Opa Locka Executive Airport (KOPF) |
| Time | Latitude | Longitude | Altitude | Speed | Heading |
|---|---|---|---|---|---|
| 2026-04-23 17:36 | 18.29938 | -66.95193 | 38030 ft | 423 kts | 306° |
| 2026-04-23 17:37 | 18.33909 | -66.99775 | 38028 ft | 423 kts | 306° |
| 2026-04-23 17:38 | 18.39852 | -67.06645 | 38037 ft | 423 kts | 306° |
| 2026-04-23 17:38 | 18.43812 | -67.11225 | 38035 ft | 423 kts | 306° |
| 2026-04-23 17:39 | 18.47770 | -67.15806 | 38039 ft | 422 kts | 306° |
| 2026-04-23 17:39 | 18.51620 | -67.20404 | 38033 ft | 420 kts | 303° |
| 2026-04-23 17:40 | 18.55317 | -67.25165 | 38033 ft | 419 kts | 303° |
| 2026-04-23 17:40 | 18.59004 | -67.29924 | 38034 ft | 419 kts | 303° |
| 2026-04-23 17:41 | 18.62712 | -67.34675 | 38034 ft | 419 kts | 303° |
| 2026-04-23 17:41 | 18.68286 | -67.41791 | 38034 ft | 419 kts | 303° |
| 2026-04-23 17:42 | 18.73831 | -67.48868 | 38035 ft | 419 kts | 303° |
| 2026-04-23 17:43 | 18.77546 | -67.53613 | 38031 ft | 419 kts | 303° |
| 2026-04-23 17:43 | 18.81256 | -67.58352 | 38027 ft | 419 kts | 303° |
| 2026-04-23 17:44 | 18.84963 | -67.63094 | 38027 ft | 419 kts | 303° |
| 2026-04-23 17:44 | 18.90527 | -67.70221 | 38027 ft | 419 kts | 303° |
| 2026-04-23 17:45 | 18.96082 | -67.77341 | 38027 ft | 418 kts | 303° |
| 2026-04-23 17:46 | 19.01608 | -67.84432 | 38027 ft | 418 kts | 303° |
| 2026-04-23 17:46 | 19.05300 | -67.89172 | 38027 ft | 418 kts | 303° |
| 2026-04-23 17:47 | 19.08993 | -67.93922 | 38022 ft | 418 kts | 303° |
| 2026-04-23 17:48 | 19.14529 | -68.01047 | 38018 ft | 418 kts | 303° |
| 2026-04-23 17:48 | 19.18223 | -68.05806 | 38018 ft | 418 kts | 303° |
| 2026-04-23 17:49 | 19.21919 | -68.10574 | 38018 ft | 418 kts | 303° |
| 2026-04-23 17:49 | 19.25588 | -68.15304 | 38205 ft | 416 kts | 302° |
| 2026-04-23 17:49 | 19.27410 | -68.17659 | 38625 ft | 411 kts | 302° |
| 2026-04-23 17:50 | 19.29211 | -68.19990 | 39043 ft | 407 kts | 302° |
| 2026-04-23 17:50 | 19.32761 | -68.24587 | 39874 ft | 400 kts | 302° |
| 2026-04-23 17:50 | 19.34527 | -68.26882 | 39983 ft | 405 kts | 302° |
| 2026-04-23 17:51 | 19.38131 | -68.31566 | 40010 ft | 415 kts | 302° |
| 2026-04-23 17:52 | 19.43661 | -68.38728 | 40020 ft | 420 kts | 302° |
| 2026-04-23 17:52 | 19.49195 | -68.45897 | 40012 ft | 418 kts | 302° |
| 2026-04-23 17:53 | 19.54710 | -68.53055 | 40010 ft | 417 kts | 302° |
| 2026-04-23 17:54 | 19.58386 | -68.57831 | 40010 ft | 417 kts | 302° |
| 2026-04-23 17:54 | 19.63867 | -68.64961 | 40003 ft | 417 kts | 302° |
| 2026-04-23 17:55 | 19.69370 | -68.72127 | 40001 ft | 417 kts | 302° |
| 2026-04-23 17:56 | 19.73037 | -68.76906 | 40002 ft | 417 kts | 302° |
| 2026-04-23 17:56 | 19.78533 | -68.84078 | 40005 ft | 417 kts | 302° |
| 2026-04-23 17:57 | 19.82197 | -68.88863 | 40002 ft | 417 kts | 302° |
| 2026-04-23 17:58 | 19.87690 | -68.96032 | 40000 ft | 417 kts | 303° |
| 2026-04-23 17:58 | 19.91513 | -69.00647 | 39999 ft | 419 kts | 304° |
| 2026-04-23 17:59 | 19.95418 | -69.05250 | 40000 ft | 419 kts | 304° |
| 2026-04-23 17:59 | 19.99308 | -69.09869 | 40002 ft | 419 kts | 304° |
| 2026-04-23 18:00 | 20.03190 | -69.14510 | 40001 ft | 418 kts | 304° |
| 2026-04-23 18:00 | 20.07035 | -69.19122 | 40002 ft | 417 kts | 304° |
| 2026-04-23 18:01 | 20.10876 | -69.23737 | 40005 ft | 416 kts | 304° |
| 2026-04-23 18:01 | 20.14689 | -69.28322 | 40005 ft | 416 kts | 304° |
| 2026-04-23 18:02 | 20.17902 | -69.32190 | 40000 ft | 416 kts | 304° |
| 2026-04-23 18:02 | 20.22354 | -69.37552 | 39999 ft | 416 kts | 304° |
| 2026-04-23 18:03 | 20.26191 | -69.42177 | 40004 ft | 416 kts | 304° |
| 2026-04-23 18:03 | 20.30019 | -69.46795 | 39995 ft | 416 kts | 304° |
| 2026-04-23 18:04 | 20.33863 | -69.51435 | 39991 ft | 417 kts | 304° |
| 2026-04-23 18:04 | 20.37696 | -69.56069 | 39991 ft | 417 kts | 304° |
| 2026-04-23 18:05 | 20.41537 | -69.60713 | 39990 ft | 417 kts | 304° |
| 2026-04-23 18:05 | 20.45369 | -69.65352 | 39990 ft | 417 kts | 304° |
| 2026-04-23 18:06 | 20.49181 | -69.69968 | 39990 ft | 417 kts | 303° |
| 2026-04-23 18:06 | 20.53014 | -69.74616 | 39990 ft | 417 kts | 304° |
| 2026-04-23 18:07 | 20.56840 | -69.79257 | 39996 ft | 416 kts | 303° |
| 2026-04-23 18:07 | 20.60010 | -69.83106 | 39991 ft | 416 kts | 303° |
| 2026-04-23 18:08 | 20.63828 | -69.87746 | 39990 ft | 415 kts | 303° |
| 2026-04-23 18:08 | 20.67638 | -69.92379 | 39991 ft | 415 kts | 303° |
| 2026-04-23 18:09 | 20.71447 | -69.97018 | 39991 ft | 415 kts | 303° |
| 2026-04-23 18:09 | 20.75254 | -70.01654 | 39992 ft | 415 kts | 303° |
| 2026-04-23 18:10 | 20.79055 | -70.06288 | 39991 ft | 414 kts | 303° |
| 2026-04-23 18:10 | 20.82848 | -70.10915 | 39994 ft | 413 kts | 303° |
| 2026-04-23 18:11 | 20.86629 | -70.15533 | 39993 ft | 413 kts | 303° |
| 2026-04-23 18:11 | 20.90410 | -70.20155 | 39990 ft | 412 kts | 303° |
| 2026-04-23 18:12 | 20.94179 | -70.24767 | 39993 ft | 412 kts | 303° |
| 2026-04-23 18:12 | 20.97947 | -70.29378 | 39991 ft | 411 kts | 303° |
| 2026-04-23 18:13 | 21.01708 | -70.33986 | 39990 ft | 411 kts | 303° |
| 2026-04-23 18:13 | 21.05465 | -70.38595 | 39989 ft | 410 kts | 303° |
| 2026-04-23 18:14 | 21.09193 | -70.43170 | 39989 ft | 410 kts | 303° |
| 2026-04-23 18:14 | 21.12942 | -70.47775 | 39992 ft | 410 kts | 303° |
| 2026-04-23 18:15 | 21.16691 | -70.52385 | 39990 ft | 410 kts | 303° |
| 2026-04-23 18:15 | 21.20430 | -70.56986 | 39990 ft | 409 kts | 303° |
| 2026-04-23 18:16 | 21.24167 | -70.61589 | 39990 ft | 409 kts | 303° |
| 2026-04-23 18:16 | 21.27908 | -70.66200 | 39990 ft | 409 kts | 303° |
| 2026-04-23 18:17 | 21.33482 | -70.73077 | 39995 ft | 409 kts | 302° |
| 2026-04-23 18:17 | 21.37211 | -70.77683 | 39993 ft | 409 kts | 302° |
| 2026-04-23 18:18 | 21.40940 | -70.82295 | 39991 ft | 409 kts | 302° |
| 2026-04-23 18:18 | 21.44667 | -70.86906 | 39992 ft | 408 kts | 302° |
| 2026-04-23 18:19 | 21.48388 | -70.91513 | 39993 ft | 409 kts | 302° |
| 2026-04-23 18:19 | 21.52110 | -70.96128 | 39992 ft | 408 kts | 302° |
| 2026-04-23 18:20 | 21.55817 | -71.00748 | 39991 ft | 407 kts | 301° |
| 2026-04-23 18:20 | 21.59149 | -71.05614 | 39992 ft | 401 kts | 295° |
| 2026-04-23 18:21 | 21.62056 | -71.10659 | 39992 ft | 399 kts | 294° |
| 2026-04-23 18:21 | 21.64960 | -71.15742 | 39991 ft | 399 kts | 294° |
| 2026-04-23 18:22 | 21.67858 | -71.20819 | 39998 ft | 398 kts | 294° |
| 2026-04-23 18:22 | 21.70757 | -71.25907 | 40000 ft | 398 kts | 294° |
| 2026-04-23 18:23 | 21.75084 | -71.33513 | 40001 ft | 397 kts | 294° |
| 2026-04-23 18:24 | 21.79405 | -71.41119 | 40000 ft | 396 kts | 294° |
| 2026-04-23 18:25 | 21.83715 | -71.48717 | 40000 ft | 396 kts | 294° |
| 2026-04-23 18:25 | 21.86583 | -71.53779 | 40007 ft | 396 kts | 294° |
| 2026-04-23 18:26 | 21.89427 | -71.58803 | 40009 ft | 395 kts | 294° |
| 2026-04-23 18:26 | 21.92287 | -71.63860 | 40010 ft | 395 kts | 294° |
| 2026-04-23 18:27 | 21.95146 | -71.68920 | 40010 ft | 395 kts | 294° |
| 2026-04-23 18:27 | 21.98005 | -71.73985 | 40013 ft | 395 kts | 294° |
| 2026-04-23 18:28 | 22.00856 | -71.79040 | 40018 ft | 394 kts | 294° |
| 2026-04-23 18:28 | 22.03704 | -71.84095 | 40018 ft | 394 kts | 294° |
| 2026-04-23 18:29 | 22.06551 | -71.89154 | 40019 ft | 394 kts | 294° |
| 2026-04-23 18:29 | 22.09393 | -71.94208 | 40019 ft | 394 kts | 293° |
| 2026-04-23 18:30 | 22.12219 | -71.99238 | 40019 ft | 394 kts | 293° |
| 2026-04-23 18:30 | 22.15063 | -72.04305 | 40018 ft | 394 kts | 293° |
| 2026-04-23 18:31 | 22.17903 | -72.09370 | 40019 ft | 394 kts | 293° |
| 2026-04-23 18:31 | 22.20741 | -72.14435 | 40020 ft | 394 kts | 293° |
| 2026-04-23 18:32 | 22.23572 | -72.19493 | 40019 ft | 394 kts | 293° |
| 2026-04-23 18:32 | 22.26404 | -72.24558 | 40018 ft | 394 kts | 293° |
| 2026-04-23 18:33 | 22.29229 | -72.29615 | 40022 ft | 393 kts | 293° |
| 2026-04-23 18:33 | 22.32055 | -72.34681 | 40027 ft | 393 kts | 293° |
| 2026-04-23 18:34 | 22.34879 | -72.39746 | 40028 ft | 393 kts | 293° |
| 2026-04-23 18:34 | 22.37678 | -72.44771 | 40028 ft | 393 kts | 293° |
| 2026-04-23 18:35 | 22.40494 | -72.49832 | 40028 ft | 393 kts | 293° |
| 2026-04-23 18:35 | 22.43308 | -72.54894 | 40028 ft | 393 kts | 293° |
| 2026-04-23 18:36 | 22.46120 | -72.59957 | 40028 ft | 393 kts | 293° |
| 2026-04-23 18:36 | 22.48930 | -72.65022 | 40029 ft | 393 kts | 293° |
| 2026-04-23 18:37 | 22.51734 | -72.70081 | 40028 ft | 392 kts | 293° |
| 2026-04-23 18:37 | 22.54536 | -72.75142 | 40033 ft | 391 kts | 293° |
| 2026-04-23 18:38 | 22.57312 | -72.80159 | 40037 ft | 391 kts | 293° |
| 2026-04-23 18:38 | 22.60100 | -72.85203 | 40038 ft | 390 kts | 293° |
| 2026-04-23 18:39 | 22.62884 | -72.90247 | 40039 ft | 390 kts | 293° |
| 2026-04-23 18:39 | 22.65667 | -72.95293 | 40038 ft | 390 kts | 293° |
| 2026-04-23 18:40 | 22.68444 | -73.00333 | 40038 ft | 390 kts | 293° |
| 2026-04-23 18:40 | 22.71223 | -73.05380 | 40046 ft | 390 kts | 293° |
| 2026-04-23 18:41 | 22.74005 | -73.10439 | 40048 ft | 390 kts | 293° |
| 2026-04-23 18:41 | 22.76780 | -73.15490 | 40049 ft | 390 kts | 293° |
| 2026-04-23 18:42 | 22.79534 | -73.20508 | 40040 ft | 390 kts | 293° |
| 2026-04-23 18:42 | 22.82308 | -73.25567 | 40056 ft | 390 kts | 293° |
| 2026-04-23 18:43 | 22.85078 | -73.30623 | 40058 ft | 390 kts | 293° |
| 2026-04-23 18:43 | 22.87849 | -73.35686 | 40061 ft | 390 kts | 292° |
| 2026-04-23 18:44 | 22.90613 | -73.40741 | 40063 ft | 389 kts | 292° |
| 2026-04-23 18:44 | 22.93356 | -73.45763 | 40066 ft | 389 kts | 292° |
| 2026-04-23 18:45 | 22.96111 | -73.50813 | 40061 ft | 389 kts | 292° |
| 2026-04-23 18:45 | 22.98866 | -73.55866 | 40068 ft | 389 kts | 292° |
| 2026-04-23 18:46 | 23.01620 | -73.60922 | 40075 ft | 388 kts | 292° |
| 2026-04-23 18:46 | 23.04364 | -73.65967 | 40075 ft | 388 kts | 292° |
| 2026-04-23 18:47 | 23.07108 | -73.71017 | 40076 ft | 388 kts | 292° |
| 2026-04-23 18:47 | 23.09849 | -73.76065 | 40084 ft | 388 kts | 292° |
| 2026-04-23 18:48 | 23.12583 | -73.81106 | 40084 ft | 387 kts | 292° |
| 2026-04-23 18:48 | 23.15314 | -73.86144 | 40084 ft | 386 kts | 292° |
| 2026-04-23 18:49 | 23.18040 | -73.91180 | 40084 ft | 386 kts | 292° |
| 2026-04-23 18:49 | 23.20758 | -73.96207 | 40092 ft | 385 kts | 292° |
| 2026-04-23 18:50 | 23.23016 | -74.00386 | 40093 ft | 385 kts | 292° |
| 2026-04-23 18:50 | 23.26169 | -74.06230 | 40093 ft | 385 kts | 292° |
| 2026-04-23 18:51 | 23.28885 | -74.11267 | 40093 ft | 385 kts | 292° |
| 2026-04-23 18:51 | 23.31594 | -74.16298 | 40093 ft | 385 kts | 292° |
| 2026-04-23 18:52 | 23.34306 | -74.21337 | 40100 ft | 385 kts | 292° |
| 2026-04-23 18:52 | 23.37012 | -74.26371 | 40102 ft | 385 kts | 292° |
| 2026-04-23 18:53 | 23.39716 | -74.31406 | 40103 ft | 385 kts | 292° |
| 2026-04-23 18:53 | 23.42417 | -74.36441 | 40103 ft | 385 kts | 292° |
| 2026-04-23 18:54 | 23.45099 | -74.41446 | 40102 ft | 385 kts | 292° |
| 2026-04-23 18:54 | 23.47798 | -74.46488 | 40103 ft | 385 kts | 292° |
| 2026-04-23 18:55 | 23.50489 | -74.51519 | 40102 ft | 384 kts | 292° |
| 2026-04-23 18:55 | 23.53180 | -74.56556 | 40102 ft | 384 kts | 292° |
| 2026-04-23 18:56 | 23.55415 | -74.60743 | 40109 ft | 384 kts | 292° |
| 2026-04-23 18:56 | 23.58100 | -74.65777 | 40111 ft | 384 kts | 292° |
| 2026-04-23 18:57 | 23.60788 | -74.70824 | 40112 ft | 384 kts | 292° |
| 2026-04-23 18:57 | 23.63472 | -74.75866 | 40112 ft | 384 kts | 292° |
| 2026-04-23 18:58 | 23.66156 | -74.80915 | 40112 ft | 384 kts | 292° |
| 2026-04-23 18:58 | 23.68840 | -74.85968 | 40112 ft | 384 kts | 292° |
| 2026-04-23 18:59 | 23.71521 | -74.91021 | 40112 ft | 384 kts | 292° |
| 2026-04-23 18:59 | 23.74184 | -74.96046 | 40111 ft | 384 kts | 292° |
| 2026-04-23 19:00 | 23.76860 | -75.01100 | 40111 ft | 384 kts | 292° |
| 2026-04-23 19:00 | 23.79538 | -75.06164 | 40111 ft | 384 kts | 292° |
| 2026-04-23 19:01 | 23.82211 | -75.11223 | 40113 ft | 385 kts | 292° |
| 2026-04-23 19:01 | 23.84887 | -75.16293 | 40112 ft | 385 kts | 292° |
| 2026-04-23 19:02 | 23.87562 | -75.21365 | 40110 ft | 385 kts | 292° |
| 2026-04-23 19:02 | 23.90234 | -75.26439 | 40106 ft | 385 kts | 292° |
| 2026-04-23 19:03 | 23.92909 | -75.31522 | 40105 ft | 385 kts | 292° |
| 2026-04-23 19:03 | 23.95560 | -75.36564 | 40103 ft | 385 kts | 292° |
| 2026-04-23 19:04 | 23.98226 | -75.41639 | 40102 ft | 384 kts | 292° |
| 2026-04-23 19:04 | 24.00881 | -75.46701 | 40102 ft | 384 kts | 292° |
| 2026-04-23 19:05 | 24.03536 | -75.51769 | 40102 ft | 384 kts | 292° |
| 2026-04-23 19:05 | 24.06185 | -75.56831 | 40102 ft | 383 kts | 292° |
| 2026-04-23 19:06 | 24.08836 | -75.61900 | 40109 ft | 383 kts | 292° |
| 2026-04-23 19:06 | 24.11484 | -75.66970 | 40111 ft | 383 kts | 292° |
| 2026-04-23 19:07 | 24.14129 | -75.72038 | 40111 ft | 383 kts | 292° |
| 2026-04-23 19:07 | 24.16773 | -75.77110 | 40111 ft | 383 kts | 292° |
| 2026-04-23 19:08 | 24.19399 | -75.82154 | 40111 ft | 383 kts | 292° |
| 2026-04-23 19:08 | 24.22041 | -75.87232 | 40111 ft | 383 kts | 292° |
| 2026-04-23 19:09 | 24.24681 | -75.92314 | 40111 ft | 383 kts | 292° |
| 2026-04-23 19:09 | 24.27316 | -75.97390 | 40111 ft | 383 kts | 292° |
| 2026-04-23 19:10 | 24.29954 | -76.02478 | 40111 ft | 383 kts | 292° |
| 2026-04-23 19:10 | 24.32585 | -76.07556 | 40107 ft | 383 kts | 292° |
| 2026-04-23 19:11 | 24.35220 | -76.12650 | 40103 ft | 384 kts | 292° |
| 2026-04-23 19:11 | 24.37854 | -76.17747 | 40102 ft | 384 kts | 292° |
| 2026-04-23 19:12 | 24.40045 | -76.21989 | 40102 ft | 384 kts | 292° |
| 2026-04-23 19:12 | 24.43104 | -76.27919 | 40109 ft | 384 kts | 292° |
| 2026-04-23 19:13 | 24.45735 | -76.33025 | 40110 ft | 384 kts | 292° |
| 2026-04-23 19:13 | 24.48368 | -76.38141 | 40111 ft | 385 kts | 292° |
| 2026-04-23 19:14 | 24.50987 | -76.43237 | 40112 ft | 385 kts | 292° |
| 2026-04-23 19:14 | 24.53620 | -76.48364 | 40111 ft | 385 kts | 292° |
| 2026-04-23 19:15 | 24.56255 | -76.53500 | 40111 ft | 386 kts | 292° |
| 2026-04-23 19:15 | 24.58889 | -76.58641 | 40116 ft | 386 kts | 292° |
| 2026-04-23 19:16 | 24.61521 | -76.63782 | 40120 ft | 386 kts | 292° |
| 2026-04-23 19:16 | 24.64155 | -76.68934 | 40120 ft | 386 kts | 292° |
| 2026-04-23 19:17 | 24.68101 | -76.76661 | 40120 ft | 387 kts | 292° |
| 2026-04-23 19:17 | 24.70733 | -76.81823 | 40120 ft | 387 kts | 292° |
| 2026-04-23 19:18 | 24.73365 | -76.86991 | 40120 ft | 387 kts | 292° |
| 2026-04-23 19:18 | 24.76000 | -76.92168 | 40121 ft | 388 kts | 292° |
| 2026-04-23 19:19 | 24.79945 | -76.99933 | 40128 ft | 388 kts | 292° |
| 2026-04-23 19:20 | 24.83897 | -77.07723 | 40130 ft | 388 kts | 292° |
| 2026-04-23 19:20 | 24.85491 | -77.10870 | 40130 ft | 388 kts | 292° |
| 2026-04-23 19:21 | 24.89441 | -77.18675 | 40132 ft | 389 kts | 292° |
| 2026-04-23 19:22 | 24.92076 | -77.23889 | 40130 ft | 389 kts | 292° |
| 2026-04-23 19:22 | 24.96027 | -77.31719 | 40130 ft | 390 kts | 292° |
| 2026-04-23 19:23 | 24.98660 | -77.36942 | 40130 ft | 389 kts | 292° |
| 2026-04-23 19:24 | 25.02502 | -77.44825 | 40130 ft | 387 kts | 289° |
| 2026-04-23 19:24 | 25.05651 | -77.52954 | 40129 ft | 386 kts | 287° |
| 2026-04-23 19:25 | 25.07699 | -77.58398 | 39555 ft | 382 kts | 287° |
| 2026-04-23 19:25 | 25.09725 | -77.63807 | 38713 ft | 381 kts | 287° |
| 2026-04-23 19:26 | 25.11745 | -77.69212 | 37871 ft | 381 kts | 287° |
| 2026-04-23 19:26 | 25.12755 | -77.71923 | 37448 ft | 382 kts | 287° |
| 2026-04-23 19:27 | 25.14782 | -77.77357 | 36609 ft | 383 kts | 287° |
| 2026-04-23 19:27 | 25.17833 | -77.85557 | 35346 ft | 387 kts | 287° |
| 2026-04-23 19:28 | 25.19877 | -77.91056 | 34505 ft | 390 kts | 288° |
| 2026-04-23 19:28 | 25.21941 | -77.96620 | 33658 ft | 392 kts | 288° |
| 2026-04-23 19:29 | 25.22974 | -77.99405 | 33234 ft | 393 kts | 288° |
| 2026-04-23 19:29 | 25.25049 | -78.05008 | 32387 ft | 395 kts | 288° |
| 2026-04-23 19:30 | 25.27134 | -78.10645 | 31539 ft | 397 kts | 288° |
| 2026-04-23 19:30 | 25.28178 | -78.13473 | 31115 ft | 398 kts | 289° |
| 2026-04-23 19:30 | 25.30272 | -78.19144 | 30244 ft | 399 kts | 289° |
| 2026-04-23 19:31 | 25.31365 | -78.21963 | 29771 ft | 401 kts | 290° |
| 2026-04-23 19:31 | 25.32509 | -78.24779 | 29294 ft | 402 kts | 291° |
| 2026-04-23 19:31 | 25.33656 | -78.27597 | 28819 ft | 403 kts | 291° |
| 2026-04-23 19:31 | 25.34799 | -78.30422 | 28345 ft | 401 kts | 291° |
| 2026-04-23 19:32 | 25.35929 | -78.33228 | 27870 ft | 399 kts | 291° |
| 2026-04-23 19:32 | 25.37055 | -78.36035 | 27397 ft | 398 kts | 291° |
| 2026-04-23 19:32 | 25.38173 | -78.38829 | 26924 ft | 397 kts | 291° |
| 2026-04-23 19:32 | 25.39275 | -78.41589 | 26453 ft | 397 kts | 291° |
| 2026-04-23 19:33 | 25.40392 | -78.44387 | 25974 ft | 396 kts | 291° |
| 2026-04-23 19:33 | 25.41500 | -78.47168 | 25498 ft | 396 kts | 291° |
| 2026-04-23 19:33 | 25.43650 | -78.52771 | 24545 ft | 395 kts | 291° |
| 2026-04-23 19:34 | 25.44717 | -78.55566 | 24069 ft | 394 kts | 291° |
| 2026-04-23 19:34 | 25.45783 | -78.58351 | 23591 ft | 392 kts | 291° |
| 2026-04-23 19:34 | 25.47900 | -78.63886 | 22639 ft | 389 kts | 291° |
| 2026-04-23 19:35 | 25.48952 | -78.66634 | 22162 ft | 388 kts | 291° |
| 2026-04-23 19:35 | 25.50005 | -78.69386 | 21684 ft | 385 kts | 291° |
| 2026-04-23 19:35 | 25.51041 | -78.72086 | 21212 ft | 376 kts | 291° |
| 2026-04-23 19:35 | 25.52047 | -78.74715 | 20734 ft | 365 kts | 291° |
| 2026-04-23 19:36 | 25.53025 | -78.77273 | 20266 ft | 356 kts | 291° |
| 2026-04-23 19:36 | 25.53981 | -78.79776 | 19810 ft | 349 kts | 291° |
| 2026-04-23 19:36 | 25.54916 | -78.82225 | 19355 ft | 343 kts | 291° |
| 2026-04-23 19:36 | 25.55842 | -78.84652 | 18897 ft | 338 kts | 291° |
| 2026-04-23 19:37 | 25.56739 | -78.87009 | 18447 ft | 335 kts | 291° |
| 2026-04-23 19:37 | 25.57638 | -78.89374 | 18022 ft | 331 kts | 291° |
| 2026-04-23 19:37 | 25.58530 | -78.91714 | 17594 ft | 328 kts | 291° |
| 2026-04-23 19:37 | 25.59414 | -78.94035 | 17167 ft | 326 kts | 291° |
| 2026-04-23 19:38 | 25.60293 | -78.96344 | 16739 ft | 325 kts | 291° |
| 2026-04-23 19:38 | 25.61167 | -78.98643 | 16312 ft | 324 kts | 291° |
| 2026-04-23 19:38 | 25.62044 | -79.00951 | 15883 ft | 323 kts | 291° |
| 2026-04-23 19:38 | 25.62916 | -79.03245 | 15456 ft | 323 kts | 291° |
| 2026-04-23 19:39 | 25.63785 | -79.05540 | 15029 ft | 323 kts | 291° |
| 2026-04-23 19:39 | 25.64648 | -79.07838 | 14602 ft | 323 kts | 291° |
| 2026-04-23 19:39 | 25.65509 | -79.10135 | 14177 ft | 323 kts | 291° |
| 2026-04-23 19:39 | 25.66372 | -79.12436 | 13751 ft | 324 kts | 292° |
| 2026-04-23 19:40 | 25.67235 | -79.14742 | 13370 ft | 323 kts | 292° |
| 2026-04-23 19:40 | 25.68096 | -79.17040 | 13016 ft | 322 kts | 292° |
| 2026-04-23 19:40 | 25.68942 | -79.19296 | 12668 ft | 321 kts | 292° |
| 2026-04-23 19:40 | 25.69796 | -79.21573 | 12315 ft | 320 kts | 292° |
| 2026-04-23 19:41 | 25.70648 | -79.23848 | 11959 ft | 319 kts | 292° |
| 2026-04-23 19:41 | 25.71499 | -79.26119 | 11608 ft | 320 kts | 292° |
| 2026-04-23 19:41 | 25.72075 | -79.27659 | 11374 ft | 319 kts | 292° |
| 2026-04-23 19:41 | 25.73193 | -79.30649 | 10907 ft | 314 kts | 292° |
| 2026-04-23 19:42 | 25.74016 | -79.32879 | 10554 ft | 311 kts | 292° |
| 2026-04-23 19:42 | 25.74822 | -79.35084 | 10198 ft | 306 kts | 292° |
| 2026-04-23 19:42 | 25.75615 | -79.37250 | 9846 ft | 301 kts | 292° |
| 2026-04-23 19:42 | 25.76399 | -79.39394 | 9489 ft | 297 kts | 292° |
| 2026-04-23 19:43 | 25.77174 | -79.41512 | 9117 ft | 295 kts | 292° |
| 2026-04-23 19:43 | 25.77944 | -79.43612 | 8742 ft | 293 kts | 292° |
| 2026-04-23 19:43 | 25.78710 | -79.45706 | 8366 ft | 292 kts | 292° |
| 2026-04-23 19:43 | 25.79473 | -79.47790 | 7991 ft | 292 kts | 292° |
| 2026-04-23 19:44 | 25.79979 | -79.49173 | 7718 ft | 292 kts | 292° |
| 2026-04-23 19:44 | 25.80744 | -79.51267 | 7286 ft | 293 kts | 292° |
| 2026-04-23 19:44 | 25.81512 | -79.53363 | 6864 ft | 293 kts | 292° |
| 2026-04-23 19:44 | 25.82280 | -79.55464 | 6438 ft | 294 kts | 292° |
| 2026-04-23 19:45 | 25.83047 | -79.57564 | 6015 ft | 293 kts | 292° |
| 2026-04-23 19:45 | 25.83809 | -79.59659 | 5587 ft | 293 kts | 292° |
| 2026-04-23 19:45 | 25.84579 | -79.61761 | 5161 ft | 294 kts | 292° |
| 2026-04-23 19:45 | 25.85353 | -79.63835 | 5042 ft | 284 kts | 292° |
| 2026-04-23 19:46 | 25.86149 | -79.65797 | 5012 ft | 275 kts | 295° |
| 2026-04-23 19:46 | 25.86968 | -79.67684 | 4996 ft | 268 kts | 296° |
| 2026-04-23 19:46 | 25.87770 | -79.69523 | 4988 ft | 261 kts | 296° |
| 2026-04-23 19:46 | 25.88560 | -79.71336 | 4984 ft | 262 kts | 296° |
| 2026-04-23 19:47 | 25.89356 | -79.73166 | 4985 ft | 264 kts | 295° |
| 2026-04-23 19:47 | 25.90144 | -79.74995 | 4988 ft | 268 kts | 295° |
| 2026-04-23 19:47 | 25.90955 | -79.76887 | 4992 ft | 274 kts | 295° |
| 2026-04-23 19:47 | 25.91774 | -79.78806 | 4995 ft | 277 kts | 295° |
| 2026-04-23 19:48 | 25.92600 | -79.80745 | 4997 ft | 280 kts | 295° |
| 2026-04-23 19:48 | 25.93435 | -79.82707 | 4998 ft | 282 kts | 295° |
| 2026-04-23 19:48 | 25.94278 | -79.84686 | 4998 ft | 283 kts | 295° |
| 2026-04-23 19:48 | 25.95113 | -79.86648 | 4997 ft | 280 kts | 295° |
| 2026-04-23 19:49 | 25.95946 | -79.88603 | 4996 ft | 279 kts | 295° |
| 2026-04-23 19:49 | 25.96762 | -79.90524 | 4995 ft | 279 kts | 295° |
| 2026-04-23 19:49 | 25.97589 | -79.92473 | 4995 ft | 279 kts | 295° |
| 2026-04-23 19:49 | 25.98362 | -79.94442 | 4992 ft | 278 kts | 289° |
| 2026-04-23 19:50 | 25.98775 | -79.96530 | 4989 ft | 276 kts | 275° |
| 2026-04-23 19:50 | 25.98834 | -79.98658 | 4991 ft | 275 kts | 270° |
| 2026-04-23 19:50 | 25.98882 | -80.00785 | 4992 ft | 275 kts | 271° |
| 2026-04-23 19:50 | 25.98941 | -80.02905 | 4992 ft | 275 kts | 271° |
| 2026-04-23 19:51 | 25.98995 | -80.05025 | 4991 ft | 275 kts | 270° |
| 2026-04-23 19:51 | 25.99046 | -80.07149 | 4992 ft | 274 kts | 270° |
| 2026-04-23 19:51 | 25.99095 | -80.09256 | 4992 ft | 268 kts | 270° |
| 2026-04-23 19:51 | 25.99146 | -80.11285 | 4988 ft | 258 kts | 270° |
| 2026-04-23 19:52 | 25.99192 | -80.13243 | 4985 ft | 250 kts | 270° |
| 2026-04-23 19:52 | 25.99236 | -80.15123 | 4981 ft | 244 kts | 270° |
| 2026-04-23 19:52 | 25.99276 | -80.17007 | 4982 ft | 241 kts | 270° |
| 2026-04-23 19:52 | 25.99314 | -80.18853 | 4988 ft | 241 kts | 270° |
| 2026-04-23 19:53 | 25.99354 | -80.20711 | 4991 ft | 240 kts | 270° |
| 2026-04-23 19:53 | 25.99398 | -80.22559 | 4994 ft | 239 kts | 270° |
| 2026-04-23 19:53 | 25.99437 | -80.24418 | 4829 ft | 246 kts | 270° |
| 2026-04-23 19:53 | 25.99477 | -80.26347 | 4607 ft | 251 kts | 270° |
| 2026-04-23 19:54 | 25.99520 | -80.28301 | 4389 ft | 254 kts | 270° |
| 2026-04-23 19:54 | 25.99565 | -80.30284 | 4171 ft | 259 kts | 270° |
| 2026-04-23 19:54 | 25.99605 | -80.32291 | 3951 ft | 261 kts | 270° |
| 2026-04-23 19:54 | 25.99916 | -80.34266 | 3694 ft | 263 kts | 293° |
| 2026-04-23 19:55 | 26.00872 | -80.35993 | 3456 ft | 264 kts | 308° |
| 2026-04-23 19:55 | 26.02000 | -80.37575 | 3222 ft | 259 kts | 310° |
| 2026-04-23 19:55 | 26.03124 | -80.39120 | 2989 ft | 255 kts | 309° |
| 2026-04-23 19:55 | 26.04220 | -80.40656 | 2759 ft | 253 kts | 309° |
| 2026-04-23 19:56 | 26.05036 | -80.42339 | 2694 ft | 243 kts | 283° |
| 2026-04-23 19:56 | 26.04985 | -80.44125 | 2697 ft | 226 kts | 249° |
| 2026-04-23 19:56 | 26.04134 | -80.45483 | 2701 ft | 208 kts | 213° |
| 2026-04-23 19:56 | 26.02879 | -80.46186 | 2707 ft | 200 kts | 200° |
| 2026-04-23 19:57 | 26.01606 | -80.46779 | 2702 ft | 196 kts | 190° |
| 2026-04-23 19:57 | 26.00297 | -80.46661 | 2700 ft | 188 kts | 152° |
| 2026-04-23 19:57 | 25.99427 | -80.45696 | 2706 ft | 179 kts | 113° |
| 2026-04-23 19:57 | 25.99363 | -80.44355 | 2720 ft | 176 kts | 77° |
| 2026-04-23 19:58 | 25.99340 | -80.43043 | 2694 ft | 175 kts | 108° |
| 2026-04-23 19:58 | 25.98775 | -80.41857 | 2785 ft | 172 kts | 121° |
| 2026-04-23 19:58 | 25.98108 | -80.40738 | 2513 ft | 190 kts | 123° |
| 2026-04-23 19:58 | 25.97334 | -80.39525 | 2343 ft | 193 kts | 125° |
| 2026-04-23 19:59 | 25.96558 | -80.38360 | 2265 ft | 183 kts | 124° |
| 2026-04-23 19:59 | 25.95856 | -80.37187 | 2030 ft | 182 kts | 120° |
| 2026-04-23 19:59 | 25.95224 | -80.35979 | 1726 ft | 178 kts | 118° |
| 2026-04-23 19:59 | 25.94604 | -80.34819 | 1409 ft | 170 kts | 120° |
| 2026-04-23 20:00 | 25.93983 | -80.33784 | 1083 ft | 155 kts | 124° |
| 2026-04-23 20:00 | 25.93329 | -80.32873 | 843 ft | 145 kts | 127° |
| 2026-04-23 20:00 | 25.92768 | -80.32035 | 668 ft | 129 kts | 120° |
| 2026-04-23 20:00 | 25.92352 | -80.31148 | 533 ft | 129 kts | 116° |
| 2026-04-23 20:01 | 25.91880 | -80.30310 | 417 ft | 128 kts | 122° |
| 2026-04-23 20:01 | 25.91411 | -80.29470 | 223 ft | 127 kts | 119° |
| 2026-04-23 20:01 | 25.90940 | -80.28656 | 42 ft | 124 kts | 121° |
| 2026-04-23 20:01 | 25.90525 | -80.27919 | 17 ft | 87 kts | 120° |
| 2026-04-23 20:02 | 25.90289 | -80.27503 | 9 ft | 39 kts | 121° |
| 2026-04-23 20:02 | 25.90174 | -80.27301 | 11 ft | 24 kts | 123° |
| 2026-04-23 20:02 | 25.90104 | -80.27169 | 11 ft | 14 kts | 99° |
| 2026-04-23 20:02 | 25.90143 | -80.27089 | 11 ft | 11 kts | 24° |
| 2026-04-23 20:03 | 25.90206 | -80.27124 | 10 ft | 15 kts | 305° |
| 2026-04-23 20:03 | 25.90276 | -80.27254 | 11 ft | 24 kts | 301° |
| 2026-04-23 20:03 | 25.90377 | -80.27426 | 9 ft | 27 kts | 302° |
| 2026-04-23 20:03 | 25.90484 | -80.27616 | 12 ft | 25 kts | 301° |
| 2026-04-23 20:04 | 25.90553 | -80.27741 | 13 ft | 16 kts | 301° |
| 2026-04-23 20:04 | 25.90626 | -80.27772 | 14 ft | 11 kts | 37° |
| 2026-04-23 20:04 | 25.90698 | -80.27716 | 14 ft | 14 kts | 33° |
| 2026-04-23 20:04 | 25.90786 | -80.27656 | 13 ft | 17 kts | 32° |
| 2026-04-23 20:05 | 25.90900 | -80.27579 | 12 ft | 21 kts | 34° |
| 2026-04-23 20:05 | 25.91019 | -80.27495 | 12 ft | 20 kts | 30° |
| 2026-04-23 20:05 | 25.91132 | -80.27414 | 12 ft | 15 kts | 45° |
| 2026-04-23 20:05 | 25.91147 | -80.27314 | 14 ft | 14 kts | 86° |
| 2026-04-23 20:06 | 25.91154 | -80.27181 | 15 ft | 20 kts | 87° |
| 2026-04-23 20:06 | 25.91159 | -80.27040 | 13 ft | 11 kts | 98° |
| 2026-04-23 20:06 | 25.91102 | -80.27021 | 13 ft | 10 kts | 183° |
| 2026-04-23 20:06 | 25.91030 | -80.27023 | 13 ft | 11 kts | 181° |
| 2026-04-23 20:07 | 25.90955 | -80.27022 | 13 ft | 10 kts | 183° |
| 2026-04-23 20:07 | 25.90922 | -80.27070 | 12 ft | 8 kts | 259° |
| 2026-04-23 20:07 | 25.90896 | -80.27078 | 12 ft | 0 kts | 173° |